createdAt,value
2018-04-15T00:00:26.476Z,94.72
2018-04-15T00:02:55.954Z,94.75
2018-04-15T00:05:25.253Z,94.81
2018-04-15T00:07:53.899Z,95.00
2018-04-15T00:10:26.196Z,95.11
2018-04-15T00:12:55.025Z,95.23
2018-04-15T00:15:24.349Z,95.33
2018-04-15T00:17:52.480Z,94.91
2018-04-15T00:20:20.474Z,95.20
2018-04-15T00:22:48.488Z,94.65
2018-04-15T00:25:17.904Z,94.75
2018-04-15T00:27:45.943Z,94.71
2018-04-15T00:30:14.150Z,94.81
2018-04-15T00:32:43.120Z,94.73
2018-04-15T00:35:13.098Z,94.45
2018-04-15T00:37:41.364Z,94.24
2018-04-15T00:40:09.553Z,94.65
2018-04-15T00:42:38.165Z,94.19
2018-04-15T00:45:07.789Z,94.41
2018-04-15T00:47:37.841Z,94.06
2018-04-15T00:50:05.913Z,94.17
2018-04-15T00:52:35.063Z,94.26
2018-04-15T00:55:03.200Z,94.36
2018-04-15T00:57:31.251Z,94.47
2018-04-15T00:59:59.766Z,93.75
2018-04-15T01:02:28.116Z,94.01
2018-04-15T01:04:56.217Z,94.07
2018-04-15T01:07:24.445Z,93.49
2018-04-15T01:09:52.557Z,93.68
2018-04-15T01:12:20.462Z,93.87
2018-04-15T01:14:48.956Z,93.43
2018-04-15T01:17:17.350Z,93.43
2018-04-15T01:19:45.699Z,93.06
2018-04-15T01:22:13.907Z,93.49
2018-04-15T01:24:42.035Z,93.22
2018-04-15T01:27:10.337Z,93.10
2018-04-15T01:29:38.477Z,92.62
2018-04-15T01:32:06.852Z,93.15
2018-04-15T01:34:35.108Z,93.04
2018-04-15T01:37:03.313Z,92.54
2018-04-15T01:39:32.199Z,93.01
2018-04-15T01:42:01.242Z,93.06
2018-04-15T01:44:29.605Z,92.66
2018-04-15T01:46:57.746Z,92.27
2018-04-15T01:49:27.384Z,92.43
2018-04-15T01:51:55.512Z,93.00
2018-04-15T01:54:23.643Z,93.21
2018-04-15T01:56:51.955Z,93.00
2018-04-15T01:59:20.693Z,92.64
2018-04-15T02:01:48.891Z,93.04
2018-04-15T02:04:18.223Z,92.79
2018-04-15T02:06:46.421Z,93.08
2018-04-15T02:09:14.578Z,93.76
2018-04-15T02:11:42.663Z,93.78
2018-04-15T02:14:10.944Z,93.49
2018-04-15T02:16:40.143Z,92.98
2018-04-15T02:19:08.835Z,93.05
2018-04-15T02:21:36.908Z,93.17
2018-04-15T02:24:05.828Z,93.79
2018-04-15T02:26:34.690Z,93.93
2018-04-15T02:29:03.583Z,93.17
2018-04-15T02:31:31.716Z,93.54
2018-04-15T02:34:00.211Z,92.97
2018-04-15T02:36:28.475Z,92.98
2018-04-15T02:38:56.779Z,92.21
2018-04-15T02:41:24.919Z,92.01
2018-04-15T02:43:53.309Z,92.39
2018-04-15T02:46:22.349Z,92.79
2018-04-15T02:48:50.460Z,93.56
2018-04-15T02:51:18.917Z,93.17
2018-04-15T02:53:47.094Z,93.82
2018-04-15T02:56:15.185Z,93.44
2018-04-15T02:58:43.351Z,93.63
2018-04-15T03:01:12.475Z,93.19
2018-04-15T03:03:40.717Z,92.94
2018-04-15T03:06:09.847Z,92.75
2018-04-15T03:08:38.840Z,93.24
2018-04-15T03:11:06.994Z,93.00
2018-04-15T03:13:35.633Z,93.76
2018-04-15T03:16:03.840Z,93.75
2018-04-15T03:18:32.866Z,93.38
2018-04-15T03:21:01.943Z,93.50
2018-04-15T03:23:29.984Z,93.45
2018-04-15T03:25:58.036Z,94.04
2018-04-15T03:28:26.861Z,93.69
2018-04-15T03:30:55.238Z,93.64
2018-04-15T03:33:23.336Z,93.28
2018-04-15T03:35:51.380Z,93.15
2018-04-15T03:38:19.381Z,93.33
2018-04-15T03:40:47.452Z,93.29
2018-04-15T03:43:15.428Z,93.23
2018-04-15T03:45:43.739Z,92.68
2018-04-15T03:48:11.872Z,92.95
2018-04-15T03:50:40.675Z,92.94
2018-04-15T03:53:08.688Z,93.29
2018-04-15T03:55:36.787Z,93.29
2018-04-15T03:58:04.894Z,93.50
2018-04-15T04:00:34.297Z,93.34
2018-04-15T04:03:02.481Z,93.09
2018-04-15T04:05:30.855Z,92.82
2018-04-15T04:07:59.012Z,93.40
2018-04-15T04:10:27.101Z,93.23
2018-04-15T04:12:55.365Z,93.56
2018-04-15T04:15:23.534Z,93.17
2018-04-15T04:18:03.488Z,93.12
2018-04-15T04:20:43.465Z,93.53
2018-04-15T04:23:23.481Z,92.95
2018-04-15T04:26:03.572Z,93.88
2018-04-15T04:28:32.945Z,93.74
2018-04-15T04:31:01.115Z,93.66
2018-04-15T04:33:29.118Z,94.11
2018-04-15T04:35:58.022Z,94.69
2018-04-15T04:38:26.577Z,95.07
2018-04-15T04:40:54.557Z,95.42
2018-04-15T04:43:23.270Z,95.60
2018-04-15T04:45:51.525Z,94.93
2018-04-15T04:48:19.762Z,94.69
2018-04-15T04:50:47.752Z,94.54
2018-04-15T04:53:16.662Z,95.55
2018-04-15T04:55:44.728Z,95.95
2018-04-15T04:58:12.669Z,95.66
2018-04-15T05:00:40.837Z,94.89
2018-04-15T05:03:08.949Z,94.51
2018-04-15T05:05:36.958Z,95.14
2018-04-15T05:08:05.052Z,95.00
2018-04-15T05:10:33.151Z,95.15
2018-04-15T05:13:01.213Z,94.33
2018-04-15T05:15:29.279Z,95.07
2018-04-15T05:17:57.468Z,95.36
2018-04-15T05:20:26.465Z,94.60
2018-04-15T05:22:54.530Z,94.74
2018-04-15T05:25:22.728Z,94.87
2018-04-15T05:27:50.880Z,95.20
2018-04-15T05:30:20.974Z,94.85
2018-04-15T05:32:49.766Z,94.65
2018-04-15T05:35:18.675Z,94.51
2018-04-15T05:37:47.844Z,94.51
2018-04-15T05:40:16.072Z,94.11
2018-04-15T05:42:46.957Z,94.00
2018-04-15T05:45:15.673Z,94.37
2018-04-15T05:47:43.832Z,94.52
2018-04-15T05:50:12.832Z,94.14
2018-04-15T05:52:41.116Z,93.68
2018-04-15T05:55:09.290Z,93.94
2018-04-15T05:57:38.611Z,93.56
2018-04-15T06:00:08.608Z,93.28
2018-04-15T06:02:36.775Z,93.40
2018-04-15T06:05:04.950Z,92.91
2018-04-15T06:07:34.866Z,92.64
2018-04-15T06:10:02.945Z,92.34
2018-04-15T06:12:31.015Z,92.03
2018-04-15T06:14:59.099Z,92.56
2018-04-15T06:17:27.258Z,92.18
2018-04-15T06:19:55.389Z,90.97
2018-04-15T06:22:23.868Z,91.18
2018-04-15T06:24:52.532Z,90.21
2018-04-15T06:27:21.295Z,91.23
2018-04-15T06:29:49.984Z,91.38
2018-04-15T06:32:17.990Z,90.78
2018-04-15T06:34:46.137Z,90.18
2018-04-15T06:37:14.184Z,90.41
2018-04-15T06:39:42.690Z,90.52
2018-04-15T06:42:10.649Z,90.06
2018-04-15T06:44:38.613Z,90.29
2018-04-15T06:47:08.194Z,90.29
2018-04-15T06:49:36.365Z,90.34
2018-04-15T06:52:04.366Z,89.89
2018-04-15T06:54:32.341Z,90.69
2018-04-15T06:57:00.415Z,90.42
2018-04-15T06:59:28.422Z,90.12
2018-04-15T07:01:56.668Z,89.63
2018-04-15T07:04:24.632Z,89.72
2018-04-15T07:06:52.737Z,89.85
2018-04-15T07:09:20.720Z,89.89
2018-04-15T07:11:49.047Z,89.89
2018-04-15T07:14:17.115Z,87.77
2018-04-15T07:16:45.961Z,89.30
2018-04-15T07:19:13.935Z,89.76
2018-04-15T07:21:42.353Z,89.32
2018-04-15T07:24:10.440Z,89.72
2018-04-15T07:26:38.469Z,90.03
2018-04-15T07:29:07.158Z,89.63
2018-04-15T07:31:36.765Z,89.11
2018-04-15T07:34:04.937Z,88.15
2018-04-15T07:36:33.580Z,87.61
2018-04-15T07:39:01.554Z,87.72
2018-04-15T07:41:29.544Z,87.32
2018-04-15T07:43:57.580Z,86.90
2018-04-15T07:46:25.653Z,86.40
2018-04-15T07:48:53.836Z,87.06
2018-04-15T07:51:21.823Z,86.48
2018-04-15T07:53:49.873Z,86.20
2018-04-15T07:56:18.198Z,85.29
2018-04-15T07:58:46.293Z,85.66
2018-04-15T08:01:14.621Z,84.67
2018-04-15T08:03:42.671Z,84.55
2018-04-15T08:06:10.631Z,84.70
2018-04-15T08:08:38.597Z,84.16
2018-04-15T08:11:06.589Z,83.95
2018-04-15T08:13:34.578Z,82.91
2018-04-15T08:16:03.911Z,82.47
2018-04-15T08:18:33.416Z,81.14
2018-04-15T08:21:01.566Z,80.35
2018-04-15T08:23:29.906Z,78.94
2018-04-15T08:25:58.136Z,78.45
2018-04-15T08:28:26.164Z,77.71
2018-04-15T08:30:54.224Z,77.39
2018-04-15T08:33:22.486Z,76.22
2018-04-15T08:35:50.421Z,74.48
2018-04-15T08:38:18.475Z,74.41
2018-04-15T08:40:47.617Z,74.48
2018-04-15T08:43:15.715Z,73.80
2018-04-15T08:45:43.691Z,73.78
2018-04-15T08:48:11.719Z,71.87
2018-04-15T08:50:39.757Z,73.15
2018-04-15T08:53:07.911Z,74.86
2018-04-15T08:55:36.220Z,75.23
2018-04-15T08:58:04.566Z,74.44
2018-04-15T09:00:32.669Z,72.64
2018-04-15T09:03:01.386Z,71.38
2018-04-15T09:05:29.612Z,70.96
2018-04-15T09:07:58.582Z,70.90
2018-04-15T09:10:26.651Z,72.00
2018-04-15T09:12:54.732Z,72.56
2018-04-15T09:15:23.435Z,73.70
2018-04-15T09:17:51.417Z,73.53
2018-04-15T09:20:20.091Z,71.75
2018-04-15T09:22:48.162Z,71.68
2018-04-15T09:25:17.539Z,70.57
2018-04-15T09:27:45.728Z,71.81
2018-04-15T09:30:13.727Z,72.08
2018-04-15T09:32:41.893Z,72.90
2018-04-15T09:35:10.818Z,72.95
2018-04-15T09:37:39.898Z,72.05
2018-04-15T09:40:07.927Z,72.46
2018-04-15T09:42:37.502Z,72.22
2018-04-15T09:45:05.677Z,72.00
2018-04-15T09:47:33.723Z,72.07
2018-04-15T09:50:01.762Z,72.72
2018-04-15T09:52:29.814Z,72.17
2018-04-15T09:54:57.825Z,71.06
2018-04-15T09:57:25.892Z,71.40
2018-04-15T09:59:54.101Z,69.82
2018-04-15T10:02:22.118Z,69.95
2018-04-15T10:04:50.266Z,70.07
2018-04-15T10:07:18.420Z,71.39
2018-04-15T10:09:46.991Z,70.10
2018-04-15T10:12:16.675Z,71.25
2018-04-15T10:14:44.745Z,71.63
2018-04-15T10:17:13.124Z,70.39
2018-04-15T10:19:41.295Z,70.97
2018-04-15T10:22:10.874Z,71.59
2018-04-15T10:24:39.008Z,71.97
2018-04-15T10:27:07.258Z,72.91
2018-04-15T10:29:36.095Z,72.50
2018-04-15T10:32:04.548Z,73.08
2018-04-15T10:34:32.764Z,72.45
2018-04-15T10:37:00.734Z,71.61
2018-04-15T10:39:28.805Z,72.41
2018-04-15T10:41:57.568Z,70.85
2018-04-15T10:44:25.571Z,72.50
2018-04-15T10:46:53.528Z,72.22
2018-04-15T10:49:21.544Z,72.35
2018-04-15T10:51:49.549Z,72.55
2018-04-15T10:54:18.744Z,71.99
2018-04-15T10:56:46.831Z,71.59
2018-04-15T10:59:14.969Z,71.74
2018-04-15T11:01:43.130Z,73.32
2018-04-15T11:04:11.298Z,73.46
2018-04-15T11:06:39.943Z,73.61
2018-04-15T11:09:09.009Z,73.42
2018-04-15T11:11:37.180Z,73.62
2018-04-15T11:14:06.208Z,74.33
2018-04-15T11:16:34.318Z,74.60
2018-04-15T11:19:03.075Z,76.15
2018-04-15T11:21:31.287Z,76.18
2018-04-15T11:23:59.463Z,76.02
2018-04-15T11:26:27.598Z,77.34
2018-04-15T11:28:55.648Z,77.47
2018-04-15T11:31:25.302Z,78.11
2018-04-15T11:33:53.587Z,78.87
2018-04-15T11:36:21.685Z,79.43
2018-04-15T11:38:49.695Z,79.32
2018-04-15T11:41:17.734Z,80.51
2018-04-15T11:43:46.453Z,79.34
2018-04-15T11:46:14.409Z,80.04
2018-04-15T11:48:42.373Z,81.34
2018-04-15T11:51:10.361Z,81.16
2018-04-15T11:53:39.299Z,81.01
2018-04-15T11:56:07.378Z,78.88
2018-04-15T11:58:35.591Z,79.97
2018-04-15T12:01:03.952Z,79.96
2018-04-15T12:03:32.072Z,80.50
2018-04-15T12:06:00.124Z,80.89
2018-04-15T12:08:28.252Z,80.03
2018-04-15T12:10:56.219Z,81.14
2018-04-15T12:13:24.318Z,79.99
2018-04-15T12:15:52.401Z,80.85
2018-04-15T12:18:20.517Z,79.91
2018-04-15T12:20:48.644Z,80.59
2018-04-15T12:23:16.717Z,80.40
2018-04-15T12:25:45.405Z,79.85
2018-04-15T12:28:13.992Z,79.66
2018-04-15T12:30:42.381Z,80.28
2018-04-15T12:33:10.607Z,79.40
2018-04-15T12:35:39.695Z,79.51
2018-04-15T12:38:07.616Z,79.91
2018-04-15T12:40:36.687Z,78.44
2018-04-15T12:43:07.439Z,77.42
2018-04-15T12:45:35.637Z,75.73
2018-04-15T12:48:06.689Z,75.07
2018-04-15T12:50:37.510Z,74.03
2018-04-15T12:53:06.395Z,75.13
2018-04-15T12:55:35.291Z,72.51
2018-04-15T12:58:06.325Z,72.14
2018-04-15T13:00:35.215Z,71.37
2018-04-15T13:03:03.388Z,71.10
2018-04-15T13:05:32.510Z,70.83
2018-04-15T13:08:02.317Z,72.63
2018-04-15T13:10:30.885Z,71.93
2018-04-15T13:12:59.673Z,72.48
2018-04-15T13:15:28.461Z,72.85
2018-04-15T13:17:56.727Z,71.99
2018-04-15T13:20:24.848Z,72.76
2018-04-15T13:22:52.922Z,73.18
2018-04-15T13:25:21.120Z,73.93
2018-04-15T13:27:49.141Z,74.62
2018-04-15T13:30:17.243Z,76.42
2018-04-15T13:32:45.362Z,75.70
2018-04-15T13:35:14.004Z,74.81
2018-04-15T13:37:42.101Z,75.40
2018-04-15T13:40:10.172Z,75.57
2018-04-15T13:42:38.173Z,75.79
2018-04-15T13:45:06.186Z,73.96
2018-04-15T13:47:34.391Z,74.76
2018-04-15T13:50:03.435Z,75.41
2018-04-15T13:52:31.863Z,75.95
2018-04-15T13:55:01.557Z,75.57
2018-04-15T13:57:30.056Z,75.28
2018-04-15T13:59:58.309Z,74.25
2018-04-15T14:02:29.281Z,75.04
2018-04-15T14:04:58.000Z,74.27
2018-04-15T14:07:26.252Z,74.56
2018-04-15T14:09:54.518Z,74.79
2018-04-15T14:12:22.485Z,74.53
2018-04-15T14:14:51.559Z,74.98
2018-04-15T14:17:19.554Z,75.06
2018-04-15T14:19:47.624Z,74.75
2018-04-15T14:22:15.668Z,74.09
2018-04-15T14:24:44.536Z,74.76
2018-04-15T14:27:13.177Z,75.19
2018-04-15T14:29:41.202Z,74.72
2018-04-15T14:32:09.266Z,75.00
2018-04-15T14:34:37.288Z,74.43
2018-04-15T14:37:05.227Z,75.14
2018-04-15T14:39:33.149Z,74.69
2018-04-15T14:42:01.131Z,74.09
2018-04-15T14:44:32.264Z,74.33
2018-04-15T14:47:00.878Z,73.67
2018-04-15T14:49:29.076Z,72.71
2018-04-15T14:51:57.403Z,71.61
2018-04-15T14:54:25.646Z,72.24
2018-04-15T14:56:54.591Z,71.40
2018-04-15T14:59:24.711Z,71.45
2018-04-15T15:01:54.682Z,71.11
2018-04-15T15:04:22.716Z,71.72
2018-04-15T15:06:50.701Z,72.72
2018-04-15T15:09:18.882Z,72.66
2018-04-15T15:11:47.048Z,73.59
2018-04-15T15:14:15.054Z,73.99
2018-04-15T15:16:43.637Z,73.39
2018-04-15T15:19:11.583Z,73.93
2018-04-15T15:21:40.007Z,74.00
2018-04-15T15:24:08.201Z,73.87
2018-04-15T15:26:36.155Z,74.02
2018-04-15T15:29:04.168Z,74.58
2018-04-15T15:31:32.170Z,73.86
2018-04-15T15:34:00.362Z,74.37
2018-04-15T15:36:28.456Z,74.48
2018-04-15T15:38:58.753Z,74.88
2018-04-15T15:41:26.802Z,75.44
2018-04-15T15:43:54.800Z,76.96
2018-04-15T15:46:23.329Z,77.97
2018-04-15T15:48:51.329Z,77.47
2018-04-15T15:51:19.617Z,77.87
2018-04-15T15:53:48.297Z,77.76
2018-04-15T15:56:16.473Z,77.78
2018-04-15T15:58:44.604Z,78.86
2018-04-15T16:01:13.953Z,78.40
2018-04-15T16:03:41.884Z,78.80
2018-04-15T16:06:09.823Z,79.14
2018-04-15T16:08:38.946Z,78.83
2018-04-15T16:11:07.031Z,79.21
2018-04-15T16:13:35.180Z,79.09
2018-04-15T16:16:03.223Z,79.75
2018-04-15T16:18:31.208Z,80.49
2018-04-15T16:20:59.198Z,79.67
2018-04-15T16:23:27.332Z,80.49
2018-04-15T16:25:55.856Z,79.78
2018-04-15T16:28:24.245Z,80.23
2018-04-15T16:30:52.255Z,79.70
2018-04-15T16:33:20.534Z,80.74
2018-04-15T16:35:48.708Z,80.56
2018-04-15T16:38:18.175Z,81.04
2018-04-15T16:40:46.629Z,81.75
2018-04-15T16:43:14.871Z,82.48
2018-04-15T16:45:45.442Z,82.90
2018-04-15T16:48:14.354Z,82.49
2018-04-15T16:50:43.227Z,82.55
2018-04-15T16:53:11.336Z,82.33
2018-04-15T16:55:39.738Z,82.15
2018-04-15T16:58:07.687Z,82.49
2018-04-15T17:00:35.711Z,82.82
2018-04-15T17:03:03.752Z,82.36
2018-04-15T17:05:31.854Z,81.62
2018-04-15T17:08:00.242Z,82.62
2018-04-15T17:10:28.388Z,83.42
2018-04-15T17:12:56.385Z,83.08
2018-04-15T17:15:24.454Z,83.62
2018-04-15T17:17:52.633Z,83.75
2018-04-15T17:20:20.660Z,81.81
2018-04-15T17:22:48.682Z,81.86
2018-04-15T17:25:17.790Z,82.33
2018-04-15T17:27:47.241Z,82.78
2018-04-15T17:30:15.229Z,83.09
2018-04-15T17:32:43.268Z,82.21
2018-04-15T17:35:11.395Z,83.35
2018-04-15T17:37:39.542Z,82.58
2018-04-15T17:40:08.639Z,83.03
2018-04-15T17:42:37.017Z,82.95
2018-04-15T17:45:05.314Z,83.16
2018-04-15T17:47:35.010Z,84.08
2018-04-15T17:50:02.993Z,83.43
2018-04-15T17:52:30.905Z,84.03
2018-04-15T17:54:59.078Z,84.25
2018-04-15T17:57:27.072Z,84.05
2018-04-15T17:59:55.083Z,83.42
2018-04-15T18:02:24.319Z,83.71
2018-04-15T18:04:52.337Z,84.14
2018-04-15T18:07:20.387Z,84.24
2018-04-15T18:09:49.310Z,84.41
2018-04-15T18:12:17.766Z,84.21
2018-04-15T18:14:45.807Z,84.25
2018-04-15T18:17:13.819Z,83.99
2018-04-15T18:19:42.082Z,84.66
2018-04-15T18:22:10.100Z,84.91
2018-04-15T18:24:38.054Z,85.27
2018-04-15T18:27:06.026Z,85.67
2018-04-15T18:29:33.991Z,85.71
2018-04-15T18:32:02.186Z,85.61
2018-04-15T18:34:30.762Z,86.01
2018-04-15T18:36:59.720Z,86.04
2018-04-15T18:39:28.048Z,85.92
2018-04-15T18:41:56.071Z,86.29
2018-04-15T18:44:24.416Z,85.85
2018-04-15T18:46:52.442Z,85.94
2018-04-15T18:49:20.453Z,86.03
2018-04-15T18:51:48.744Z,86.19
2018-04-15T18:54:16.834Z,86.38
2018-04-15T18:56:45.011Z,86.53
2018-04-15T18:59:13.060Z,87.12
2018-04-15T19:01:41.157Z,87.15
2018-04-15T19:04:09.265Z,87.24
2018-04-15T19:06:38.433Z,87.27
2018-04-15T19:09:06.467Z,87.54
2018-04-15T19:11:35.496Z,88.09
2018-04-15T19:14:04.428Z,88.06
2018-04-15T19:16:32.793Z,88.40
2018-04-15T19:19:00.915Z,88.09
2018-04-15T19:21:29.313Z,88.38
2018-04-15T19:23:57.303Z,88.47
2018-04-15T19:26:28.448Z,89.18
2018-04-15T19:28:57.089Z,89.17
2018-04-15T19:31:25.469Z,89.06
2018-04-15T19:33:54.700Z,88.54
2018-04-15T19:36:22.897Z,88.86
2018-04-15T19:38:51.624Z,88.18
2018-04-15T19:41:19.753Z,88.47
2018-04-15T19:43:47.840Z,88.52
2018-04-15T19:46:16.589Z,88.11
2018-04-15T19:48:45.905Z,88.67
2018-04-15T19:51:14.034Z,88.34
2018-04-15T19:53:42.154Z,87.57
2018-04-15T19:56:10.586Z,87.98
2018-04-15T19:58:40.063Z,87.62
2018-04-15T20:01:08.144Z,87.20
2018-04-15T20:03:36.221Z,87.22
2018-04-15T20:06:04.862Z,87.24
2018-04-15T20:08:32.829Z,87.55
2018-04-15T20:11:01.059Z,87.29
2018-04-15T20:13:29.178Z,87.22
2018-04-15T20:15:57.723Z,87.32
2018-04-15T20:18:27.442Z,87.67
2018-04-15T20:20:55.674Z,87.19
2018-04-15T20:23:24.160Z,87.47
2018-04-15T20:25:53.991Z,87.34
2018-04-15T20:28:22.061Z,87.22
2018-04-15T20:30:51.358Z,87.19
2018-04-15T20:33:19.416Z,87.14
2018-04-15T20:35:47.432Z,87.07
2018-04-15T20:38:15.510Z,86.70
2018-04-15T20:40:43.401Z,87.44
2018-04-15T20:43:11.424Z,86.94
2018-04-15T20:45:39.381Z,86.93
2018-04-15T20:48:07.374Z,87.32
2018-04-15T20:50:35.313Z,86.82
2018-04-15T20:53:03.236Z,87.03
2018-04-15T20:55:31.156Z,86.84
2018-04-15T20:57:59.784Z,87.32
2018-04-15T21:00:27.704Z,87.00
2018-04-15T21:02:55.652Z,86.86
2018-04-15T21:05:23.558Z,87.24
2018-04-15T21:07:51.479Z,87.23
2018-04-15T21:10:19.423Z,87.35
2018-04-15T21:12:48.080Z,87.02
2018-04-15T21:15:16.132Z,87.19
2018-04-15T21:17:44.914Z,87.19
2018-04-15T21:20:12.839Z,87.22
2018-04-15T21:22:40.793Z,87.08
2018-04-15T21:25:08.780Z,87.31
2018-04-15T21:27:36.818Z,87.11
2018-04-15T21:30:04.783Z,87.17
2018-04-15T21:32:32.752Z,87.19
2018-04-15T21:35:00.686Z,87.37
2018-04-15T21:37:29.252Z,87.29
2018-04-15T21:39:57.627Z,87.32
2018-04-15T21:42:25.594Z,87.37
2018-04-15T21:44:53.567Z,87.67
2018-04-15T21:47:22.031Z,87.04
2018-04-15T21:49:50.028Z,87.18
2018-04-15T21:52:18.181Z,86.86
2018-04-15T21:54:46.169Z,86.96
2018-04-15T21:57:14.084Z,87.01
2018-04-15T21:59:42.027Z,87.09
2018-04-15T22:02:10.016Z,87.17
2018-04-15T22:04:37.965Z,87.50
2018-04-15T22:07:05.909Z,88.05
2018-04-15T22:09:34.169Z,87.55
2018-04-15T22:12:13.849Z,87.44
2018-04-15T22:14:42.116Z,87.68
2018-04-15T22:17:10.108Z,87.61
2018-04-15T22:19:38.668Z,87.84
2018-04-15T22:22:06.606Z,87.70
2018-04-15T22:24:34.580Z,88.24
2018-04-15T22:27:02.657Z,87.70
2018-04-15T22:29:30.618Z,87.48
2018-04-15T22:31:58.543Z,87.44
2018-04-15T22:34:27.152Z,87.80
2018-04-15T22:36:55.097Z,87.12
2018-04-15T22:39:23.065Z,87.57
2018-04-15T22:41:52.042Z,86.75
2018-04-15T22:44:20.031Z,86.70
2018-04-15T22:46:48.052Z,86.73
2018-04-15T22:49:21.673Z,86.93
2018-04-15T22:51:49.646Z,87.12
2018-04-15T22:54:17.641Z,86.77
2018-04-15T22:56:45.653Z,86.50
2018-04-15T22:59:13.734Z,86.62
2018-04-15T23:01:41.716Z,86.52
2018-04-15T23:04:09.682Z,86.09
2018-04-15T23:06:37.693Z,86.22
2018-04-15T23:09:05.771Z,86.15
2018-04-15T23:11:33.752Z,86.12
2018-04-15T23:14:01.829Z,86.20
2018-04-15T23:16:29.787Z,86.46
2018-04-15T23:18:57.760Z,86.76
2018-04-15T23:21:25.776Z,86.69
2018-04-15T23:23:53.694Z,86.90
2018-04-15T23:26:21.656Z,87.03
2018-04-15T23:28:49.648Z,87.15
2018-04-15T23:31:17.664Z,87.21
2018-04-15T23:33:45.608Z,87.26
2018-04-15T23:36:13.542Z,88.07
2018-04-15T23:38:41.505Z,87.44
2018-04-15T23:41:09.425Z,87.61
2018-04-15T23:43:37.352Z,87.44
2018-04-15T23:46:05.907Z,87.67
2018-04-15T23:48:33.831Z,87.99
2018-04-15T23:51:02.605Z,88.22
2018-04-15T23:53:30.945Z,88.78
2018-04-15T23:55:59.068Z,88.57
2018-04-15T23:58:27.304Z,88.81
